Terminal Aerodrome Forecast
Issued by NWS

Home | Current Version | Previous Version | Text Only | Print | Product List | Glossary On
Versions: 1 2 3 4 5 6 7 8 9 10 11 12 13 14 15 16 17
000
FTUS43 KPAH 200847 AAA
TAFCGI
TAF AMD
KCGI 200847Z 2009/2106 09006KT P6SM VCTS BKN050CB
      TEMPO 2009/2012 2SM +TSRA OVC020CB
     FM201200 17010KT 6SM -SHRA VCTS BKN035CB
     FM201500 17008KT P6SM SCT050 BKN250
     FM202100 18008KT P6SM BKN050 PROB30 2022/2101 P6SM -TSRA
      BKN035CB=

USA.gov is the U.S. government's official web portal to all federal, state and local government web resources and services.